sensor_id;sensor_type;location;lat;lon;timestamp;pressure;altitude;pressure_sealevel;temperature;humidity
41686;BME280;27370;42.764;23.432;2023-03-25T00:02:08;95291.59;;;6.28;100.00
41686;BME280;27370;42.764;23.432;2023-03-25T00:04:33;95295.84;;;5.90;100.00
41686;BME280;27370;42.764;23.432;2023-03-25T00:06:59;95302.72;;;5.88;100.00
41686;BME280;27370;42.764;23.432;2023-03-25T00:09:25;95300.78;;;5.74;100.00
41686;BME280;27370;42.764;23.432;2023-03-25T00:11:51;95296.91;;;5.50;100.00
41686;BME280;27370;42.764;23.432;2023-03-25T00:14:17;95301.53;;;5.49;100.00
41686;BME280;27370;42.764;23.432;2023-03-25T00:16:44;95296.91;;;5.50;100.00
41686;BME280;27370;42.764;23.432;2023-03-25T00:19:16;95304.97;;;5.57;100.00
41686;BME280;27370;42.764;23.432;2023-03-25T00:21:42;95301.19;;;5.72;100.00
41686;BME280;27370;42.764;23.432;2023-03-25T00:24:11;95291.59;;;5.68;100.00
41686;BME280;27370;42.764;23.432;2023-03-25T00:26:37;95283.53;;;5.82;100.00
41686;BME280;27370;42.764;23.432;2023-03-25T00:29:08;95280.44;;;5.69;100.00
41686;BME280;27370;42.764;23.432;2023-03-25T00:31:33;95290.81;;;5.67;100.00
41686;BME280;27370;42.764;23.432;2023-03-25T00:34:00;95288.47;;;5.51;100.00
41686;BME280;27370;42.764;23.432;2023-03-25T00:36:25;95281.91;;;5.42;100.00
41686;BME280;27370;42.764;23.432;2023-03-25T00:38:51;95285.03;;;5.51;100.00
41686;BME280;27370;42.764;23.432;2023-03-25T00:41:22;95283.88;;;5.52;100.00
41686;BME280;27370;42.764;23.432;2023-03-25T00:43:57;95283.44;;;5.32;100.00
41686;BME280;27370;42.764;23.432;2023-03-25T00:46:24;95280.75;;;5.39;100.00
41686;BME280;27370;42.764;23.432;2023-03-25T00:48:51;95275.34;;;5.18;100.00
41686;BME280;27370;42.764;23.432;2023-03-25T00:51:18;95279.53;;;5.08;100.00
41686;BME280;27370;42.764;23.432;2023-03-25T00:53:47;95285.25;;;5.00;100.00
41686;BME280;27370;42.764;23.432;2023-03-25T00:56:16;95275.97;;;4.79;100.00
41686;BME280;27370;42.764;23.432;2023-03-25T00:58:42;95265.19;;;4.72;100.00
41686;BME280;27370;42.764;23.432;2023-03-25T01:01:15;95277.06;;;4.68;100.00
41686;BME280;27370;42.764;23.432;2023-03-25T01:03:42;95274.00;;;4.69;100.00
41686;BME280;27370;42.764;23.432;2023-03-25T01:06:12;95272.13;;;4.11;100.00
41686;BME280;27370;42.764;23.432;2023-03-25T01:08:40;95273.72;;;4.23;100.00
41686;BME280;27370;42.764;23.432;2023-03-25T01:11:18;95275.25;;;4.20;100.00
41686;BME280;27370;42.764;23.432;2023-03-25T01:13:44;95270.22;;;4.12;100.00
41686;BME280;27370;42.764;23.432;2023-03-25T01:16:11;95269.09;;;4.13;100.00
41686;BME280;27370;42.764;23.432;2023-03-25T01:18:37;95270.25;;;4.19;100.00
41686;BME280;27370;42.764;23.432;2023-03-25T01:21:04;95274.78;;;4.08;100.00
41686;BME280;27370;42.764;23.432;2023-03-25T01:23:30;95263.34;;;4.14;100.00
41686;BME280;27370;42.764;23.432;2023-03-25T01:25:56;95261.41;;;4.11;100.00
41686;BME280;27370;42.764;23.432;2023-03-25T01:28:21;95254.16;;;4.12;100.00
41686;BME280;27370;42.764;23.432;2023-03-25T01:30:47;95243.41;;;4.08;100.00
41686;BME280;27370;42.764;23.432;2023-03-25T01:33:13;95235.84;;;4.24;100.00
41686;BME280;27370;42.764;23.432;2023-03-25T01:35:38;95242.66;;;4.11;100.00
41686;BME280;27370;42.764;23.432;2023-03-25T01:38:04;95237.25;;;4.04;100.00
41686;BME280;27370;42.764;23.432;2023-03-25T01:40:29;95230.34;;;4.03;100.00
41686;BME280;27370;42.764;23.432;2023-03-25T01:42:55;95228.72;;;3.88;100.00
41686;BME280;27370;42.764;23.432;2023-03-25T01:47:56;95229.97;;;3.53;100.00
41686;BME280;27370;42.764;23.432;2023-03-25T01:50:26;95226.09;;;3.98;100.00
41686;BME280;27370;42.764;23.432;2023-03-25T01:52:55;95225.59;;;3.79;100.00
41686;BME280;27370;42.764;23.432;2023-03-25T01:55:21;95231.72;;;3.79;100.00
41686;BME280;27370;42.764;23.432;2023-03-25T01:57:50;95228.72;;;3.88;100.00
41686;BME280;27370;42.764;23.432;2023-03-25T02:00:19;95228.84;;;3.54;100.00
41686;BME280;27370;42.764;23.432;2023-03-25T02:02:46;95224.09;;;3.37;100.00
41686;BME280;27370;42.764;23.432;2023-03-25T02:05:22;95223.41;;;3.44;100.00
41686;BME280;27370;42.764;23.432;2023-03-25T02:07:50;95225.72;;;3.45;100.00
41686;BME280;27370;42.764;23.432;2023-03-25T02:10:18;95222.91;;;3.31;100.00
41686;BME280;27370;42.764;23.432;2023-03-25T02:12:44;95211.63;;;3.55;100.00
41686;BME280;27370;42.764;23.432;2023-03-25T02:15:13;95218.81;;;3.44;100.00
41686;BME280;27370;42.764;23.432;2023-03-25T02:23:32;95212.91;;;3.24;100.00
41686;BME280;27370;42.764;23.432;2023-03-25T02:29:07;95215.16;;;3.19;100.00
41686;BME280;27370;42.764;23.432;2023-03-25T02:40:05;95211.53;;;3.41;100.00
41686;BME280;27370;42.764;23.432;2023-03-25T02:42:54;95221.91;;;3.46;100.00
41686;BME280;27370;42.764;23.432;2023-03-25T02:45:28;95207.63;;;3.35;100.00
41686;BME280;27370;42.764;23.432;2023-03-25T02:48:06;95214.09;;;3.30;100.00
41686;BME280;27370;42.764;23.432;2023-03-25T02:50:38;95212.66;;;3.40;100.00
41686;BME280;27370;42.764;23.432;2023-03-25T02:53:09;95209.81;;;3.22;100.00
41686;BME280;27370;42.764;23.432;2023-03-25T02:55:38;95211.41;;;3.27;100.00
41686;BME280;27370;42.764;23.432;2023-03-25T02:58:09;95200.56;;;3.16;100.00
41686;BME280;27370;42.764;23.432;2023-03-25T03:00:36;95205.66;;;3.28;100.00
41686;BME280;27370;42.764;23.432;2023-03-25T03:03:04;95202.31;;;3.38;100.00
41686;BME280;27370;42.764;23.432;2023-03-25T03:05:37;95207.91;;;3.23;100.00
41686;BME280;27370;42.764;23.432;2023-03-25T03:13:30;95200.47;;;3.02;100.00
41686;BME280;27370;42.764;23.432;2023-03-25T03:21:32;95201.38;;;2.80;100.00
41686;BME280;27370;42.764;23.432;2023-03-25T03:24:20;95203.25;;;2.75;100.00
41686;BME280;27370;42.764;23.432;2023-03-25T03:26:51;95213.09;;;2.71;100.00
41686;BME280;27370;42.764;23.432;2023-03-25T03:29:41;95208.56;;;2.72;100.00
41686;BME280;27370;42.764;23.432;2023-03-25T03:34:41;95205.50;;;2.73;100.00
41686;BME280;27370;42.764;23.432;2023-03-25T03:39:38;95206.97;;;2.71;100.00
41686;BME280;27370;42.764;23.432;2023-03-25T03:42:27;95197.84;;;2.38;100.00
41686;BME280;27370;42.764;23.432;2023-03-25T03:44:59;95194.78;;;2.40;100.00
41686;BME280;27370;42.764;23.432;2023-03-25T03:47:29;95198.31;;;2.47;100.00
41686;BME280;27370;42.764;23.432;2023-03-25T03:50:04;95190.22;;;2.40;100.00
41686;BME280;27370;42.764;23.432;2023-03-25T03:52:40;95178.19;;;2.24;100.00
41686;BME280;27370;42.764;23.432;2023-03-25T03:55:13;95188.59;;;2.32;100.00
41686;BME280;27370;42.764;23.432;2023-03-25T03:57:53;95193.63;;;2.37;100.00
41686;BME280;27370;42.764;23.432;2023-03-25T04:00:24;95193.03;;;2.51;100.00
41686;BME280;27370;42.764;23.432;2023-03-25T04:02:52;95204.97;;;2.61;100.00
41686;BME280;27370;42.764;23.432;2023-03-25T04:05:22;95201.53;;;2.60;100.00
41686;BME280;27370;42.764;23.432;2023-03-25T04:08:05;95191.34;;;2.39;100.00
41686;BME280;27370;42.764;23.432;2023-03-25T04:10:42;95196.63;;;2.32;100.00
41686;BME280;27370;42.764;23.432;2023-03-25T04:13:12;95202.41;;;2.38;100.00
41686;BME280;27370;42.764;23.432;2023-03-25T04:15:40;95199.69;;;2.34;100.00
41686;BME280;27370;42.764;23.432;2023-03-25T04:18:06;95202.03;;;2.39;100.00
41686;BME280;27370;42.764;23.432;2023-03-25T04:20:33;95202.38;;;2.34;100.00
41686;BME280;27370;42.764;23.432;2023-03-25T04:23:02;95196.94;;;2.27;100.00
41686;BME280;27370;42.764;23.432;2023-03-25T04:25:29;95200.78;;;2.30;100.00
41686;BME280;27370;42.764;23.432;2023-03-25T04:27:57;95214.50;;;2.28;100.00
41686;BME280;27370;42.764;23.432;2023-03-25T04:30:24;95206.50;;;2.28;100.00
41686;BME280;27370;42.764;23.432;2023-03-25T04:32:50;95220.53;;;2.25;100.00
41686;BME280;27370;42.764;23.432;2023-03-25T04:35:17;95203.34;;;2.23;100.00
41686;BME280;27370;42.764;23.432;2023-03-25T04:37:44;95220.63;;;2.29;100.00
41686;BME280;27370;42.764;23.432;2023-03-25T04:40:12;95203.50;;;2.33;100.00
41686;BME280;27370;42.764;23.432;2023-03-25T04:42:44;95216.97;;;2.44;100.00
41686;BME280;27370;42.764;23.432;2023-03-25T04:45:11;95210.28;;;2.27;100.00
41686;BME280;27370;42.764;23.432;2023-03-25T04:47:44;95215.06;;;2.44;100.00
41686;BME280;27370;42.764;23.432;2023-03-25T04:50:23;95220.25;;;2.60;100.00
41686;BME280;27370;42.764;23.432;2023-03-25T04:52:49;95205.25;;;2.86;100.00
41686;BME280;27370;42.764;23.432;2023-03-25T04:55:16;95219.28;;;3.13;100.00
41686;BME280;27370;42.764;23.432;2023-03-25T04:57:45;95208.19;;;3.11;100.00
41686;BME280;27370;42.764;23.432;2023-03-25T05:00:16;95217.47;;;3.24;100.00
41686;BME280;27370;42.764;23.432;2023-03-25T05:02:46;95219.75;;;3.22;100.00
41686;BME280;27370;42.764;23.432;2023-03-25T05:05:13;95221.28;;;3.23;100.00
41686;BME280;27370;42.764;23.432;2023-03-25T05:07:46;95228.84;;;3.54;100.00
41686;BME280;27370;42.764;23.432;2023-03-25T05:10:14;95227.50;;;3.82;100.00
41686;BME280;27370;42.764;23.432;2023-03-25T05:12:40;95238.50;;;4.21;100.00
41686;BME280;27370;42.764;23.432;2023-03-25T05:15:08;95242.28;;;4.13;100.00
41686;BME280;27370;42.764;23.432;2023-03-25T05:17:33;95236.69;;;4.36;100.00
41686;BME280;27370;42.764;23.432;2023-03-25T05:19:59;95228.09;;;4.81;100.00
41686;BME280;27370;42.764;23.432;2023-03-25T05:22:25;95231.63;;;5.10;100.00
41686;BME280;27370;42.764;23.432;2023-03-25T05:24:50;95234.75;;;5.37;100.00
41686;BME280;27370;42.764;23.432;2023-03-25T05:27:20;95227.88;;;5.72;100.00
41686;BME280;27370;42.764;23.432;2023-03-25T05:29:46;95236.34;;;6.17;100.00
41686;BME280;27370;42.764;23.432;2023-03-25T05:32:12;95229.38;;;6.40;100.00
41686;BME280;27370;42.764;23.432;2023-03-25T05:34:46;95232.34;;;6.71;100.00
41686;BME280;27370;42.764;23.432;2023-03-25T05:37:12;95239.19;;;6.90;100.00
41686;BME280;27370;42.764;23.432;2023-03-25T05:39:38;95227.66;;;6.89;100.00
41686;BME280;27370;42.764;23.432;2023-03-25T05:42:03;95238.47;;;6.75;100.00
41686;BME280;27370;42.764;23.432;2023-03-25T05:44:29;95242.34;;;6.70;100.00
41686;BME280;27370;42.764;23.432;2023-03-25T05:46:54;95224.25;;;6.78;100.00
41686;BME280;27370;42.764;23.432;2023-03-25T05:49:20;95243.34;;;7.12;100.00
41686;BME280;27370;42.764;23.432;2023-03-25T05:51:46;95234.13;;;7.10;100.00
41686;BME280;27370;42.764;23.432;2023-03-25T05:54:14;95224.38;;;7.33;100.00
41686;BME280;27370;42.764;23.432;2023-03-25T05:56:40;95240.78;;;7.57;100.00
41686;BME280;27370;42.764;23.432;2023-03-25T05:59:07;95239.53;;;7.68;100.00
41686;BME280;27370;42.764;23.432;2023-03-25T06:01:33;95243.53;;;7.50;100.00
41686;BME280;27370;42.764;23.432;2023-03-25T06:04:02;95245.94;;;7.30;100.00
41686;BME280;27370;42.764;23.432;2023-03-25T06:06:28;95242.47;;;7.33;100.00
41686;BME280;27370;42.764;23.432;2023-03-25T06:08:54;95235.47;;;7.43;100.00
41686;BME280;27370;42.764;23.432;2023-03-25T06:11:20;95236.50;;;7.59;100.00
41686;BME280;27370;42.764;23.432;2023-03-25T06:13:46;95240.31;;;7.65;100.00
41686;BME280;27370;42.764;23.432;2023-03-25T06:16:17;95227.22;;;7.71;100.00
41686;BME280;27370;42.764;23.432;2023-03-25T06:18:49;95230.50;;;7.89;100.00
41686;BME280;27370;42.764;23.432;2023-03-25T06:21:19;95230.56;;;7.82;100.00
41686;BME280;27370;42.764;23.432;2023-03-25T06:23:45;95243.59;;;7.94;100.00
41686;BME280;27370;42.764;23.432;2023-03-25T06:26:17;95235.97;;;8.27;100.00
41686;BME280;27370;42.764;23.432;2023-03-25T06:28:43;95246.41;;;8.66;100.00
41686;BME280;27370;42.764;23.432;2023-03-25T06:31:15;95244.84;;;8.69;100.00
41686;BME280;27370;42.764;23.432;2023-03-25T06:33:44;95254.00;;;8.75;100.00
41686;BME280;27370;42.764;23.432;2023-03-25T06:36:12;95264.47;;;9.03;100.00
41686;BME280;27370;42.764;23.432;2023-03-25T06:38:40;95261.34;;;9.39;100.00
41686;BME280;27370;42.764;23.432;2023-03-25T06:41:11;95256.13;;;9.55;100.00
41686;BME280;27370;42.764;23.432;2023-03-25T06:43:38;95251.81;;;9.58;100.00
41686;BME280;27370;42.764;23.432;2023-03-25T06:46:23;95249.25;;;9.47;100.00
41686;BME280;27370;42.764;23.432;2023-03-25T06:49:12;95238.91;;;9.42;100.00
41686;BME280;27370;42.764;23.432;2023-03-25T06:51:37;95241.63;;;9.42;100.00
41686;BME280;27370;42.764;23.432;2023-03-25T06:54:03;95229.16;;;9.48;100.00
41686;BME280;27370;42.764;23.432;2023-03-25T06:56:28;95244.03;;;9.63;100.00
41686;BME280;27370;42.764;23.432;2023-03-25T06:58:54;95249.34;;;9.94;100.00
41686;BME280;27370;42.764;23.432;2023-03-25T07:01:20;95245.31;;;10.05;100.00
41686;BME280;27370;42.764;23.432;2023-03-25T07:03:45;95232.75;;;9.92;100.00
41686;BME280;27370;42.764;23.432;2023-03-25T07:06:20;95242.38;;;9.96;100.00
41686;BME280;27370;42.764;23.432;2023-03-25T07:08:46;95245.91;;;10.40;100.00
41686;BME280;27370;42.764;23.432;2023-03-25T07:11:14;95235.41;;;10.22;100.00
41686;BME280;27370;42.764;23.432;2023-03-25T07:13:40;95237.22;;;10.29;100.00
41686;BME280;27370;42.764;23.432;2023-03-25T07:16:06;95234.31;;;10.39;100.00
41686;BME280;27370;42.764;23.432;2023-03-25T07:18:32;95233.94;;;10.61;100.00
41686;BME280;27370;42.764;23.432;2023-03-25T07:20:58;95226.03;;;10.70;100.00
41686;BME280;27370;42.764;23.432;2023-03-25T07:23:23;95224.38;;;10.96;100.00
41686;BME280;27370;42.764;23.432;2023-03-25T07:25:49;95228.75;;;11.46;100.00
41686;BME280;27370;42.764;23.432;2023-03-25T07:28:14;95221.22;;;11.37;100.00
41686;BME280;27370;42.764;23.432;2023-03-25T07:30:44;95229.00;;;11.51;100.00
41686;BME280;27370;42.764;23.432;2023-03-25T07:33:10;95232.19;;;11.66;100.00
41686;BME280;27370;42.764;23.432;2023-03-25T07:35:35;95234.53;;;11.84;100.00
41686;BME280;27370;42.764;23.432;2023-03-25T07:38:01;95227.50;;;12.03;100.00
41686;BME280;27370;42.764;23.432;2023-03-25T07:40:27;95231.88;;;12.74;100.00
41686;BME280;27370;42.764;23.432;2023-03-25T07:42:52;95220.53;;;12.92;100.00
41686;BME280;27370;42.764;23.432;2023-03-25T07:45:31;95221.19;;;13.25;100.00
41686;BME280;27370;42.764;23.432;2023-03-25T07:47:59;95223.50;;;13.39;100.00
41686;BME280;27370;42.764;23.432;2023-03-25T07:50:25;95219.13;;;13.55;100.00
41686;BME280;27370;42.764;23.432;2023-03-25T07:52:51;95208.59;;;13.82;100.00
41686;BME280;27370;42.764;23.432;2023-03-25T07:55:17;95196.59;;;14.05;100.00
41686;BME280;27370;42.764;23.432;2023-03-25T07:57:43;95208.81;;;14.48;100.00
41686;BME280;27370;42.764;23.432;2023-03-25T08:00:09;95207.13;;;14.63;100.00
41686;BME280;27370;42.764;23.432;2023-03-25T08:02:38;95193.00;;;14.55;100.00
41686;BME280;27370;42.764;23.432;2023-03-25T08:05:05;95199.81;;;14.73;100.00
41686;BME280;27370;42.764;23.432;2023-03-25T08:07:31;95180.25;;;14.39;100.00
41686;BME280;27370;42.764;23.432;2023-03-25T08:09:57;95175.50;;;14.31;100.00
41686;BME280;27370;42.764;23.432;2023-03-25T08:12:22;95177.28;;;14.59;100.00
41686;BME280;27370;42.764;23.432;2023-03-25T08:14:48;95174.63;;;14.68;100.00
41686;BME280;27370;42.764;23.432;2023-03-25T08:17:13;95172.66;;;14.91;100.00
41686;BME280;27370;42.764;23.432;2023-03-25T08:19:39;95173.00;;;14.71;100.00
41686;BME280;27370;42.764;23.432;2023-03-25T08:22:05;95171.53;;;14.57;100.00
41686;BME280;27370;42.764;23.432;2023-03-25T08:24:31;95170.31;;;14.58;100.00
41686;BME280;27370;42.764;23.432;2023-03-25T08:26:57;95152.56;;;14.97;100.00
41686;BME280;27370;42.764;23.432;2023-03-25T08:29:25;95168.19;;;15.28;100.00
41686;BME280;27370;42.764;23.432;2023-03-25T08:31:51;95154.47;;;15.50;100.00
41686;BME280;27370;42.764;23.432;2023-03-25T08:34:18;95153.28;;;15.91;100.00
41686;BME280;27370;42.764;23.432;2023-03-25T08:36:44;95166.97;;;16.09;100.00
41686;BME280;27370;42.764;23.432;2023-03-25T08:39:11;95141.63;;;16.27;100.00
41686;BME280;27370;42.764;23.432;2023-03-25T08:41:38;95154.53;;;16.08;100.00
41686;BME280;27370;42.764;23.432;2023-03-25T08:44:05;95163.16;;;16.07;100.00
41686;BME280;27370;42.764;23.432;2023-03-25T08:46:31;95150.25;;;15.58;100.00
41686;BME280;27370;42.764;23.432;2023-03-25T08:48:57;95153.97;;;15.64;100.00
41686;BME280;27370;42.764;23.432;2023-03-25T08:51:22;95129.63;;;15.57;100.00
41686;BME280;27370;42.764;23.432;2023-03-25T08:53:48;95134.66;;;15.18;100.00
41686;BME280;27370;42.764;23.432;2023-03-25T08:56:14;95130.53;;;15.14;100.00
41686;BME280;27370;42.764;23.432;2023-03-25T08:58:39;95135.63;;;15.33;100.00
41686;BME280;27370;42.764;23.432;2023-03-25T09:01:05;95144.56;;;15.65;100.00
41686;BME280;27370;42.764;23.432;2023-03-25T09:03:31;95136.38;;;15.65;100.00
41686;BME280;27370;42.764;23.432;2023-03-25T09:05:57;95124.16;;;16.06;100.00
41686;BME280;27370;42.764;23.432;2023-03-25T09:08:23;95123.88;;;16.22;100.00
41686;BME280;27370;42.764;23.432;2023-03-25T09:10:49;95120.72;;;16.33;100.00
41686;BME280;27370;42.764;23.432;2023-03-25T09:13:15;95119.34;;;16.38;100.00
41686;BME280;27370;42.764;23.432;2023-03-25T09:15:40;95120.38;;;16.49;100.00
41686;BME280;27370;42.764;23.432;2023-03-25T09:18:06;95118.91;;;16.67;100.00
41686;BME280;27370;42.764;23.432;2023-03-25T09:20:32;95117.06;;;16.73;96.29
41686;BME280;27370;42.764;23.432;2023-03-25T09:22:58;95116.44;;;16.87;91.56
41686;BME280;27370;42.764;23.432;2023-03-25T09:25:23;95107.84;;;17.55;94.56
41686;BME280;27370;42.764;23.432;2023-03-25T09:27:50;95102.06;;;17.86;78.95
41686;BME280;27370;42.764;23.432;2023-03-25T09:30:15;95091.44;;;17.12;87.44
41686;BME280;27370;42.764;23.432;2023-03-25T09:32:41;95094.31;;;17.18;83.68
41686;BME280;27370;42.764;23.432;2023-03-25T09:35:07;95092.47;;;17.57;82.78
41686;BME280;27370;42.764;23.432;2023-03-25T09:37:32;95085.13;;;17.63;81.88
41686;BME280;27370;42.764;23.432;2023-03-25T09:39:58;95080.31;;;17.58;92.13
41686;BME280;27370;42.764;23.432;2023-03-25T09:42:32;95077.31;;;17.80;93.90
41686;BME280;27370;42.764;23.432;2023-03-25T09:48:37;95072.84;;;17.92;91.79
41686;BME280;27370;42.764;23.432;2023-03-25T09:51:11;95066.75;;;18.12;90.29
41686;BME280;27370;42.764;23.432;2023-03-25T09:53:48;95069.19;;;18.48;91.75
41686;BME280;27370;42.764;23.432;2023-03-25T09:56:18;95061.69;;;18.87;85.87
41686;BME280;27370;42.764;23.432;2023-03-25T09:58:46;95040.00;;;19.54;85.46
41686;BME280;27370;42.764;23.432;2023-03-25T10:01:44;95056.44;;;20.09;76.78
41686;BME280;27370;42.764;23.432;2023-03-25T10:22:26;95018.94;;;20.53;74.47
41686;BME280;27370;42.764;23.432;2023-03-25T10:25:02;95027.84;;;20.68;78.42
41686;BME280;27370;42.764;23.432;2023-03-25T10:30:14;95010.47;;;20.82;72.28
41686;BME280;27370;42.764;23.432;2023-03-25T10:32:44;95014.25;;;20.85;71.33
41686;BME280;27370;42.764;23.432;2023-03-25T10:35:44;95002.91;;;20.77;67.19
41686;BME280;27370;42.764;23.432;2023-03-25T10:38:17;95006.25;;;20.87;71.97
41686;BME280;27370;42.764;23.432;2023-03-25T10:40:51;94995.34;;;21.03;69.85
41686;BME280;27370;42.764;23.432;2023-03-25T10:45:55;94984.59;;;20.68;60.53
41686;BME280;27370;42.764;23.432;2023-03-25T10:48:24;94986.31;;;20.40;59.43
41686;BME280;27370;42.764;23.432;2023-03-25T10:50:57;94985.03;;;20.61;59.42
41686;BME280;27370;42.764;23.432;2023-03-25T10:53:27;94981.84;;;20.68;66.47
41686;BME280;27370;42.764;23.432;2023-03-25T10:56:01;94976.22;;;21.20;58.86
41686;BME280;27370;42.764;23.432;2023-03-25T10:58:28;94973.94;;;21.56;60.52
41686;BME280;27370;42.764;23.432;2023-03-25T11:00:54;94965.31;;;21.37;57.15
41686;BME280;27370;42.764;23.432;2023-03-25T11:03:32;94967.22;;;20.83;58.65
41686;BME280;27370;42.764;23.432;2023-03-25T11:05:58;94962.88;;;20.76;62.08
41686;BME280;27370;42.764;23.432;2023-03-25T11:08:24;94960.63;;;20.74;54.64
41686;BME280;27370;42.764;23.432;2023-03-25T11:10:53;94953.47;;;20.57;54.83
41686;BME280;27370;42.764;23.432;2023-03-25T11:13:29;94958.41;;;21.16;53.01
41686;BME280;27370;42.764;23.432;2023-03-25T11:15:57;94958.47;;;21.69;52.15
41686;BME280;27370;42.764;23.432;2023-03-25T11:18:33;94952.81;;;21.95;52.46
41686;BME280;27370;42.764;23.432;2023-03-25T11:21:02;94955.56;;;21.95;56.88
41686;BME280;27370;42.764;23.432;2023-03-25T11:23:45;94941.50;;;21.93;58.91
41686;BME280;27370;42.764;23.432;2023-03-25T11:26:26;94950.22;;;21.27;46.30
41686;BME280;27370;42.764;23.432;2023-03-25T11:29:15;94935.06;;;21.43;47.04
41686;BME280;27370;42.764;23.432;2023-03-25T11:31:42;94928.22;;;20.90;43.10
41686;BME280;27370;42.764;23.432;2023-03-25T11:36:37;94919.84;;;20.73;49.16
41686;BME280;27370;42.764;23.432;2023-03-25T11:39:23;94911.16;;;20.48;51.33
41686;BME280;27370;42.764;23.432;2023-03-25T11:41:50;94904.59;;;20.77;54.60
41686;BME280;27370;42.764;23.432;2023-03-25T11:44:34;94894.34;;;21.15;60.14
41686;BME280;27370;42.764;23.432;2023-03-25T11:47:03;94897.44;;;21.28;60.02
41686;BME280;27370;42.764;23.432;2023-03-25T11:49:37;94896.50;;;21.43;56.37
41686;BME280;27370;42.764;23.432;2023-03-25T11:52:08;94891.75;;;21.49;52.71
41686;BME280;27370;42.764;23.432;2023-03-25T11:54:38;94894.25;;;21.47;57.01
41686;BME280;27370;42.764;23.432;2023-03-25T11:57:12;94880.31;;;21.67;58.03
41686;BME280;27370;42.764;23.432;2023-03-25T11:59:43;94891.06;;;21.70;53.27
41686;BME280;27370;42.764;23.432;2023-03-25T12:05:18;94877.59;;;21.89;61.56
41686;BME280;27370;42.764;23.432;2023-03-25T12:07:47;94864.75;;;21.64;61.54
41686;BME280;27370;42.764;23.432;2023-03-25T12:10:21;94876.09;;;21.77;65.29
41686;BME280;27370;42.764;23.432;2023-03-25T12:13:45;94862.31;;;21.83;56.80
41686;BME280;27370;42.764;23.432;2023-03-25T12:30:02;94856.56;;;21.21;54.05
41686;BME280;27370;42.764;23.432;2023-03-25T12:32:42;94847.31;;;20.76;56.23
41686;BME280;27370;42.764;23.432;2023-03-25T12:49:30;94862.88;;;20.16;65.65
41686;BME280;27370;42.764;23.432;2023-03-25T12:55:02;94854.66;;;20.22;61.37
41686;BME280;27370;42.764;23.432;2023-03-25T13:09:00;94846.47;;;20.27;69.53
41686;BME280;27370;42.764;23.432;2023-03-25T13:11:39;94844.31;;;20.37;69.68
41686;BME280;27370;42.764;23.432;2023-03-25T13:14:19;94846.13;;;20.45;69.63
41686;BME280;27370;42.764;23.432;2023-03-25T13:16:46;94852.81;;;20.39;59.36
41686;BME280;27370;42.764;23.432;2023-03-25T13:19:16;94842.25;;;20.32;61.58
41686;BME280;27370;42.764;23.432;2023-03-25T13:21:50;94849.06;;;20.10;62.52
41686;BME280;27370;42.764;23.432;2023-03-25T13:26:58;94859.22;;;19.99;61.77
41686;BME280;27370;42.764;23.432;2023-03-25T13:29:36;94854.53;;;19.79;66.81
41686;BME280;27370;42.764;23.432;2023-03-25T13:32:08;94852.56;;;19.59;67.21
41686;BME280;27370;42.764;23.432;2023-03-25T13:34:52;94847.13;;;19.44;72.40
41686;BME280;27370;42.764;23.432;2023-03-25T13:37:42;94844.75;;;19.32;70.86
41686;BME280;27370;42.764;23.432;2023-03-25T13:42:52;94841.97;;;19.06;76.42
41686;BME280;27370;42.764;23.432;2023-03-25T13:45:22;94843.25;;;18.90;65.48
41686;BME280;27370;42.764;23.432;2023-03-25T13:48:14;94857.28;;;18.77;65.96
41686;BME280;27370;42.764;23.432;2023-03-25T13:50:41;94862.34;;;18.64;65.86
41686;BME280;27370;42.764;23.432;2023-03-25T13:53:17;94853.28;;;18.28;66.38
41686;BME280;27370;42.764;23.432;2023-03-25T13:56:10;94863.31;;;18.31;64.54
41686;BME280;27370;42.764;23.432;2023-03-25T14:12:31;94906.06;;;16.83;82.84
41686;BME280;27370;42.764;23.432;2023-03-25T14:15:33;94912.63;;;16.77;75.34
41686;BME280;27370;42.764;23.432;2023-03-25T14:18:01;94907.00;;;16.71;81.52
41686;BME280;27370;42.764;23.432;2023-03-25T14:23:02;94897.97;;;16.47;83.44
41686;BME280;27370;42.764;23.432;2023-03-25T14:26:00;94898.06;;;16.71;74.15
41686;BME280;27370;42.764;23.432;2023-03-25T14:28:35;94898.72;;;16.47;79.59
41686;BME280;27370;42.764;23.432;2023-03-25T14:31:07;94899.63;;;16.53;79.00
41686;BME280;27370;42.764;23.432;2023-03-25T14:44:31;94894.47;;;16.04;90.35
41686;BME280;27370;42.764;23.432;2023-03-25T14:50:04;94846.78;;;15.45;100.00
41686;BME280;27370;42.764;23.432;2023-03-25T14:52:43;94826.16;;;15.25;100.00
41686;BME280;27370;42.764;23.432;2023-03-25T14:55:17;94812.38;;;15.01;100.00
41686;BME280;27370;42.764;23.432;2023-03-25T14:57:44;94836.31;;;15.07;100.00
41686;BME280;27370;42.764;23.432;2023-03-25T15:00:24;94836.16;;;15.01;100.00
41686;BME280;27370;42.764;23.432;2023-03-25T15:03:07;94835.84;;;15.08;100.00
41686;BME280;27370;42.764;23.432;2023-03-25T15:05:35;94837.41;;;15.18;100.00
41686;BME280;27370;42.764;23.432;2023-03-25T15:11:04;94836.31;;;15.16;100.00
41686;BME280;27370;42.764;23.432;2023-03-25T15:13:39;94828.28;;;15.40;100.00
41686;BME280;27370;42.764;23.432;2023-03-25T15:16:26;94835.41;;;15.46;100.00
41686;BME280;27370;42.764;23.432;2023-03-25T15:21:22;94828.13;;;15.52;100.00
41686;BME280;27370;42.764;23.432;2023-03-25T15:23:59;94831.91;;;15.46;100.00
41686;BME280;27370;42.764;23.432;2023-03-25T15:26:32;94834.50;;;15.58;100.00
41686;BME280;27370;42.764;23.432;2023-03-25T15:32:19;94819.75;;;15.56;100.00
41686;BME280;27370;42.764;23.432;2023-03-25T15:48:49;94812.81;;;14.73;100.00
41686;BME280;27370;42.764;23.432;2023-03-25T15:56:47;94814.03;;;14.90;100.00
41686;BME280;27370;42.764;23.432;2023-03-25T15:59:28;94805.28;;;14.95;100.00